sensor_id;sensor_type;location;lat;lon;timestamp;pressure;altitude;pressure_sealevel;temperature;humidity
50634;BME280;36596;55.798;38.462;2022-07-22T00:00:14;99169.25;;;15.79;100.00
50634;BME280;36596;55.798;38.462;2022-07-22T00:02:40;99161.16;;;15.83;100.00
50634;BME280;36596;55.798;38.462;2022-07-22T00:05:06;99167.91;;;15.85;100.00
50634;BME280;36596;55.798;38.462;2022-07-22T00:07:32;99162.56;;;15.89;100.00
50634;BME280;36596;55.798;38.462;2022-07-22T00:09:58;99170.13;;;15.92;100.00
50634;BME280;36596;55.798;38.462;2022-07-22T00:12:24;99167.72;;;15.90;100.00
50634;BME280;36596;55.798;38.462;2022-07-22T00:14:50;99165.91;;;15.95;100.00
50634;BME280;36596;55.798;38.462;2022-07-22T00:17:16;99153.75;;;15.96;100.00
50634;BME280;36596;55.798;38.462;2022-07-22T00:19:42;99149.16;;;16.00;100.00
50634;BME280;36596;55.798;38.462;2022-07-22T00:22:08;99163.88;;;16.04;100.00
50634;BME280;36596;55.798;38.462;2022-07-22T00:24:34;99158.81;;;16.06;100.00
50634;BME280;36596;55.798;38.462;2022-07-22T00:27:00;99165.16;;;16.06;100.00
50634;BME280;36596;55.798;38.462;2022-07-22T00:29:25;99171.44;;;16.07;100.00
50634;BME280;36596;55.798;38.462;2022-07-22T00:31:51;99163.88;;;16.04;100.00
50634;BME280;36596;55.798;38.462;2022-07-22T00:34:17;99170.66;;;16.06;100.00
50634;BME280;36596;55.798;38.462;2022-07-22T00:36:43;99165.81;;;16.03;100.00
50634;BME280;36596;55.798;38.462;2022-07-22T00:39:09;99177.03;;;15.98;100.00
50634;BME280;36596;55.798;38.462;2022-07-22T00:41:34;99172.19;;;15.95;100.00
50634;BME280;36596;55.798;38.462;2022-07-22T00:44:05;99173.56;;;15.89;100.00
50634;BME280;36596;55.798;38.462;2022-07-22T00:46:35;99189.56;;;15.87;100.00
50634;BME280;36596;55.798;38.462;2022-07-22T00:49:04;99189.81;;;15.82;100.00
50634;BME280;36596;55.798;38.462;2022-07-22T00:51:30;99189.38;;;15.92;100.00
50634;BME280;36596;55.798;38.462;2022-07-22T00:53:59;99193.69;;;15.81;100.00
50634;BME280;36596;55.798;38.462;2022-07-22T00:56:26;99195.34;;;15.73;100.00
50634;BME280;36596;55.798;38.462;2022-07-22T00:58:54;99193.72;;;15.72;100.00
50634;BME280;36596;55.798;38.462;2022-07-22T01:01:21;99192.78;;;15.68;100.00
50634;BME280;36596;55.798;38.462;2022-07-22T01:03:47;99192.66;;;15.64;100.00
50634;BME280;36596;55.798;38.462;2022-07-22T01:06:13;99187.84;;;15.61;100.00
50634;BME280;36596;55.798;38.462;2022-07-22T01:08:41;99196.75;;;15.58;100.00
50634;BME280;36596;55.798;38.462;2022-07-22T01:11:20;99204.66;;;15.60;100.00
50634;BME280;36596;55.798;38.462;2022-07-22T01:13:47;99202.59;;;15.57;100.00
50634;BME280;36596;55.798;38.462;2022-07-22T01:16:16;99209.34;;;15.59;100.00
50634;BME280;36596;55.798;38.462;2022-07-22T01:18:43;99209.56;;;15.54;100.00
50634;BME280;36596;55.798;38.462;2022-07-22T01:21:09;99207.94;;;15.53;100.00
50634;BME280;36596;55.798;38.462;2022-07-22T01:23:39;99211.34;;;15.50;100.00
50634;BME280;36596;55.798;38.462;2022-07-22T01:26:06;99205.84;;;15.50;100.00
50634;BME280;36596;55.798;38.462;2022-07-22T01:28:32;99214.25;;;15.53;100.00
50634;BME280;36596;55.798;38.462;2022-07-22T01:30:58;99209.72;;;15.49;100.00
50634;BME280;36596;55.798;38.462;2022-07-22T01:33:25;99220.06;;;15.52;100.00
50634;BME280;36596;55.798;38.462;2022-07-22T01:35:51;99222.97;;;15.55;100.00
50634;BME280;36596;55.798;38.462;2022-07-22T01:38:18;99219.53;;;15.59;100.00
50634;BME280;36596;55.798;38.462;2022-07-22T01:40:46;99221.97;;;15.60;100.00
50634;BME280;36596;55.798;38.462;2022-07-22T01:43:15;99231.50;;;15.63;100.00
50634;BME280;36596;55.798;38.462;2022-07-22T01:45:45;99231.16;;;15.64;100.00
50634;BME280;36596;55.798;38.462;2022-07-22T01:48:11;99229.69;;;15.67;100.00
50634;BME280;36596;55.798;38.462;2022-07-22T01:50:38;99232.56;;;15.70;100.00
50634;BME280;36596;55.798;38.462;2022-07-22T01:53:04;99243.56;;;15.70;100.00
50634;BME280;36596;55.798;38.462;2022-07-22T01:55:30;99243.72;;;15.74;100.00
50634;BME280;36596;55.798;38.462;2022-07-22T01:57:56;99247.41;;;15.78;100.00
50634;BME280;36596;55.798;38.462;2022-07-22T02:00:27;99251.94;;;15.83;100.00
50634;BME280;36596;55.798;38.462;2022-07-22T02:02:53;99251.25;;;15.86;100.00
50634;BME280;36596;55.798;38.462;2022-07-22T02:05:19;99240.25;;;15.86;100.00
50634;BME280;36596;55.798;38.462;2022-07-22T02:07:45;99250.56;;;15.89;100.00
50634;BME280;36596;55.798;38.462;2022-07-22T02:10:11;99243.91;;;15.90;100.00
50634;BME280;36596;55.798;38.462;2022-07-22T02:12:37;99250.25;;;15.90;100.00
50634;BME280;36596;55.798;38.462;2022-07-22T02:15:25;99248.28;;;15.91;100.00
50634;BME280;36596;55.798;38.462;2022-07-22T02:17:51;99247.50;;;15.90;100.00
50634;BME280;36596;55.798;38.462;2022-07-22T02:20:17;99251.03;;;15.91;100.00
50634;BME280;36596;55.798;38.462;2022-07-22T02:22:43;99261.25;;;15.90;100.00
50634;BME280;36596;55.798;38.462;2022-07-22T02:25:09;99260.91;;;15.92;100.00
50634;BME280;36596;55.798;38.462;2022-07-22T02:27:36;99262.53;;;15.93;100.00
50634;BME280;36596;55.798;38.462;2022-07-22T02:30:05;99259.44;;;15.95;100.00
50634;BME280;36596;55.798;38.462;2022-07-22T02:32:31;99262.31;;;15.98;100.00
50634;BME280;36596;55.798;38.462;2022-07-22T02:34:57;99261.97;;;16.00;100.00
50634;BME280;36596;55.798;38.462;2022-07-22T02:37:23;99255.78;;;16.03;100.00
50634;BME280;36596;55.798;38.462;2022-07-22T02:39:49;99268.75;;;16.02;100.00
50634;BME280;36596;55.798;38.462;2022-07-22T02:42:15;99262.13;;;16.03;100.00
50634;BME280;36596;55.798;38.462;2022-07-22T02:44:45;99272.13;;;16.08;100.00
50634;BME280;36596;55.798;38.462;2022-07-22T02:47:11;99278.41;;;16.08;100.00
50634;BME280;36596;55.798;38.462;2022-07-22T02:50:14;99271.38;;;16.20;100.00
50634;BME280;36596;55.798;38.462;2022-07-22T02:52:40;99269.75;;;16.19;100.00
50634;BME280;36596;55.798;38.462;2022-07-22T02:55:06;99278.50;;;16.21;100.00
50634;BME280;36596;55.798;38.462;2022-07-22T02:57:32;99288.00;;;16.23;100.00
50634;BME280;36596;55.798;38.462;2022-07-22T02:59:58;99282.84;;;16.22;100.00
50634;BME280;36596;55.798;38.462;2022-07-22T03:02:24;99290.41;;;16.25;100.00
50634;BME280;36596;55.798;38.462;2022-07-22T03:04:49;99286.06;;;16.24;100.00
50634;BME280;36596;55.798;38.462;2022-07-22T03:07:15;99293.75;;;16.31;100.00
50634;BME280;36596;55.798;38.462;2022-07-22T03:09:42;99302.97;;;16.35;100.00
50634;BME280;36596;55.798;38.462;2022-07-22T03:12:08;99301.59;;;16.41;100.00
50634;BME280;36596;55.798;38.462;2022-07-22T03:14:34;99308.72;;;16.42;100.00
50634;BME280;36596;55.798;38.462;2022-07-22T03:17:00;99300.59;;;16.46;100.00
50634;BME280;36596;55.798;38.462;2022-07-22T03:19:25;99305.09;;;16.50;100.00
50634;BME280;36596;55.798;38.462;2022-07-22T03:21:54;99305.22;;;16.54;100.00
50634;BME280;36596;55.798;38.462;2022-07-22T03:24:22;99311.00;;;16.61;100.00
50634;BME280;36596;55.798;38.462;2022-07-22T03:26:48;99301.09;;;16.60;100.00
50634;BME280;36596;55.798;38.462;2022-07-22T03:29:14;99305.59;;;16.65;100.00
50634;BME280;36596;55.798;38.462;2022-07-22T03:31:40;99314.69;;;16.65;100.00
50634;BME280;36596;55.798;38.462;2022-07-22T03:34:06;99319.16;;;16.70;100.00
50634;BME280;36596;55.798;38.462;2022-07-22T03:36:36;99324.00;;;16.73;100.00
50634;BME280;36596;55.798;38.462;2022-07-22T03:39:02;99333.19;;;16.77;100.00
50634;BME280;36596;55.798;38.462;2022-07-22T03:41:28;99328.97;;;16.80;100.00
50634;BME280;36596;55.798;38.462;2022-07-22T03:43:54;99330.69;;;16.84;100.00
50634;BME280;36596;55.798;38.462;2022-07-22T03:46:20;99334.41;;;16.88;100.00
50634;BME280;36596;55.798;38.462;2022-07-22T03:48:48;99339.25;;;16.91;100.00
50634;BME280;36596;55.798;38.462;2022-07-22T03:51:14;99313.63;;;16.91;100.00
50634;BME280;36596;55.798;38.462;2022-07-22T03:53:40;99320.66;;;17.01;100.00
50634;BME280;36596;55.798;38.462;2022-07-22T03:56:06;99324.19;;;17.01;100.00
50634;BME280;36596;55.798;38.462;2022-07-22T03:58:41;99321.59;;;17.05;100.00
50634;BME280;36596;55.798;38.462;2022-07-22T04:01:07;99317.22;;;17.04;100.00
50634;BME280;36596;55.798;38.462;2022-07-22T04:03:32;99314.00;;;17.14;100.00
50634;BME280;36596;55.798;38.462;2022-07-22T04:06:06;99323.09;;;17.27;100.00
50634;BME280;36596;55.798;38.462;2022-07-22T04:08:49;99305.75;;;17.39;100.00
50634;BME280;36596;55.798;38.462;2022-07-22T04:11:16;99321.28;;;17.43;100.00
50634;BME280;36596;55.798;38.462;2022-07-22T04:13:42;99310.81;;;17.49;100.00
50634;BME280;36596;55.798;38.462;2022-07-22T04:16:08;99317.00;;;17.58;100.00
50634;BME280;36596;55.798;38.462;2022-07-22T04:18:34;99324.03;;;17.68;100.00
50634;BME280;36596;55.798;38.462;2022-07-22T04:21:00;99314.84;;;17.76;100.00
50634;BME280;36596;55.798;38.462;2022-07-22T04:23:33;99323.44;;;17.87;100.00
50634;BME280;36596;55.798;38.462;2022-07-22T04:26:07;99327.13;;;17.91;100.00
50634;BME280;36596;55.798;38.462;2022-07-22T04:28:39;99331.38;;;18.01;100.00
50634;BME280;36596;55.798;38.462;2022-07-22T04:31:05;99331.47;;;18.17;100.00
50634;BME280;36596;55.798;38.462;2022-07-22T04:33:32;99330.16;;;18.27;100.00
50634;BME280;36596;55.798;38.462;2022-07-22T04:35:59;99329.44;;;18.30;100.00
50634;BME280;36596;55.798;38.462;2022-07-22T04:38:25;99317.97;;;18.28;100.00
50634;BME280;36596;55.798;38.462;2022-07-22T04:40:56;99325.63;;;18.34;100.00
50634;BME280;36596;55.798;38.462;2022-07-22T04:43:24;99324.84;;;18.34;100.00
50634;BME280;36596;55.798;38.462;2022-07-22T04:45:50;99321.63;;;18.32;100.00
50634;BME280;36596;55.798;38.462;2022-07-22T04:48:16;99334.75;;;18.35;100.00
50634;BME280;36596;55.798;38.462;2022-07-22T04:50:43;99327.22;;;18.48;100.00
50634;BME280;36596;55.798;38.462;2022-07-22T04:53:08;99321.84;;;18.67;100.00
50634;BME280;36596;55.798;38.462;2022-07-22T04:55:34;99320.19;;;18.79;100.00
50634;BME280;36596;55.798;38.462;2022-07-22T04:58:00;99324.41;;;18.89;100.00
50634;BME280;36596;55.798;38.462;2022-07-22T05:00:26;99330.09;;;18.96;100.00
50634;BME280;36596;55.798;38.462;2022-07-22T05:02:54;99326.38;;;19.04;100.00
50634;BME280;36596;55.798;38.462;2022-07-22T05:05:21;99332.38;;;19.22;100.00
50634;BME280;36596;55.798;38.462;2022-07-22T05:07:47;99344.22;;;19.38;100.00
50634;BME280;36596;55.798;38.462;2022-07-22T05:10:13;99334.53;;;19.45;100.00
50634;BME280;36596;55.798;38.462;2022-07-22T05:12:39;99344.75;;;19.44;100.00
50634;BME280;36596;55.798;38.462;2022-07-22T05:15:05;99334.16;;;19.46;100.00
50634;BME280;36596;55.798;38.462;2022-07-22T05:17:32;99341.47;;;19.54;100.00
50634;BME280;36596;55.798;38.462;2022-07-22T05:20:12;99331.75;;;19.61;100.00
50634;BME280;36596;55.798;38.462;2022-07-22T05:22:40;99330.72;;;19.69;100.00
50634;BME280;36596;55.798;38.462;2022-07-22T05:25:14;99337.00;;;19.82;100.00
50634;BME280;36596;55.798;38.462;2022-07-22T05:27:50;99326.69;;;19.98;100.00
50634;BME280;36596;55.798;38.462;2022-07-22T05:30:18;99337.03;;;20.01;100.00
50634;BME280;36596;55.798;38.462;2022-07-22T05:32:46;99332.91;;;20.11;100.00
50634;BME280;36596;55.798;38.462;2022-07-22T05:35:13;99335.84;;;20.18;100.00
50634;BME280;36596;55.798;38.462;2022-07-22T05:37:39;99331.69;;;20.28;100.00
50634;BME280;36596;55.798;38.462;2022-07-22T05:40:05;99336.44;;;20.47;100.00
50634;BME280;36596;55.798;38.462;2022-07-22T05:42:31;99339.84;;;20.60;100.00
50634;BME280;36596;55.798;38.462;2022-07-22T05:44:57;99335.91;;;20.61;100.00
50634;BME280;36596;55.798;38.462;2022-07-22T05:47:23;99345.09;;;20.65;100.00
50634;BME280;36596;55.798;38.462;2022-07-22T05:49:49;99342.03;;;20.70;100.00
50634;BME280;36596;55.798;38.462;2022-07-22T05:52:15;99332.34;;;20.80;100.00
50634;BME280;36596;55.798;38.462;2022-07-22T05:54:41;99338.44;;;20.89;100.00
50634;BME280;36596;55.798;38.462;2022-07-22T05:57:08;99332.25;;;20.96;100.00
50634;BME280;36596;55.798;38.462;2022-07-22T05:59:36;99331.31;;;20.88;100.00
50634;BME280;36596;55.798;38.462;2022-07-22T06:02:03;99341.13;;;20.82;100.00
50634;BME280;36596;55.798;38.462;2022-07-22T06:04:42;99342.09;;;20.93;100.00
50634;BME280;36596;55.798;38.462;2022-07-22T06:07:08;99337.50;;;21.01;100.00
50634;BME280;36596;55.798;38.462;2022-07-22T06:09:34;99342.88;;;21.13;100.00
50634;BME280;36596;55.798;38.462;2022-07-22T06:12:00;99335.53;;;21.25;100.00
50634;BME280;36596;55.798;38.462;2022-07-22T06:14:26;99342.38;;;21.31;100.00
50634;BME280;36596;55.798;38.462;2022-07-22T06:16:52;99344.56;;;21.45;100.00
50634;BME280;36596;55.798;38.462;2022-07-22T06:19:18;99314.31;;;21.59;100.00
50634;BME280;36596;55.798;38.462;2022-07-22T06:21:44;99327.88;;;21.64;100.00
50634;BME280;36596;55.798;38.462;2022-07-22T06:24:12;99324.41;;;21.71;100.00
50634;BME280;36596;55.798;38.462;2022-07-22T06:26:38;99325.06;;;21.88;100.00
50634;BME280;36596;55.798;38.462;2022-07-22T06:29:04;99326.75;;;21.96;100.00
50634;BME280;36596;55.798;38.462;2022-07-22T06:31:30;99323.66;;;22.01;100.00
50634;BME280;36596;55.798;38.462;2022-07-22T06:33:56;99327.31;;;22.09;100.00
50634;BME280;36596;55.798;38.462;2022-07-22T06:36:29;99325.81;;;22.15;100.00
50634;BME280;36596;55.798;38.462;2022-07-22T06:38:55;99314.41;;;22.24;100.00
50634;BME280;36596;55.798;38.462;2022-07-22T06:41:43;99334.06;;;22.34;100.00
50634;BME280;36596;55.798;38.462;2022-07-22T06:44:29;99330.78;;;22.59;100.00
50634;BME280;36596;55.798;38.462;2022-07-22T06:47:11;99320.53;;;22.67;100.00
50634;BME280;36596;55.798;38.462;2022-07-22T06:49:38;99326.03;;;22.63;100.00
50634;BME280;36596;55.798;38.462;2022-07-22T06:52:04;99321.63;;;22.59;100.00
50634;BME280;36596;55.798;38.462;2022-07-22T06:54:30;99329.56;;;22.60;100.00
50634;BME280;36596;55.798;38.462;2022-07-22T06:56:58;99305.47;;;22.72;100.00
50634;BME280;36596;55.798;38.462;2022-07-22T06:59:28;99323.91;;;22.87;100.00
50634;BME280;36596;55.798;38.462;2022-07-22T07:01:55;99323.78;;;23.10;100.00
50634;BME280;36596;55.798;38.462;2022-07-22T07:04:21;99316.78;;;23.31;100.00
50634;BME280;36596;55.798;38.462;2022-07-22T07:06:49;99318.13;;;23.48;100.00
50634;BME280;36596;55.798;38.462;2022-07-22T07:09:23;99320.47;;;23.42;100.00
50634;BME280;36596;55.798;38.462;2022-07-22T07:12:01;99324.09;;;23.50;100.00
50634;BME280;36596;55.798;38.462;2022-07-22T07:14:47;99323.38;;;23.60;100.00
50634;BME280;36596;55.798;38.462;2022-07-22T07:17:13;99319.94;;;23.78;100.00
50634;BME280;36596;55.798;38.462;2022-07-22T07:19:41;99332.03;;;23.96;100.00
50634;BME280;36596;55.798;38.462;2022-07-22T07:22:07;99328.16;;;24.15;100.00
50634;BME280;36596;55.798;38.462;2022-07-22T07:24:33;99321.34;;;24.13;100.00
50634;BME280;36596;55.798;38.462;2022-07-22T07:26:59;99326.97;;;24.20;100.00
50634;BME280;36596;55.798;38.462;2022-07-22T07:29:25;99331.72;;;24.16;100.00
50634;BME280;36596;55.798;38.462;2022-07-22T07:31:52;99321.72;;;24.04;100.00
50634;BME280;36596;55.798;38.462;2022-07-22T07:34:18;99318.72;;;24.41;100.00
50634;BME280;36596;55.798;38.462;2022-07-22T07:36:44;99334.41;;;24.82;100.00
50634;BME280;36596;55.798;38.462;2022-07-22T07:39:13;99325.59;;;24.73;100.00
50634;BME280;36596;55.798;38.462;2022-07-22T07:41:39;99329.97;;;24.67;100.00
50634;BME280;36596;55.798;38.462;2022-07-22T07:44:06;99332.84;;;24.95;100.00
50634;BME280;36596;55.798;38.462;2022-07-22T07:46:35;99325.25;;;24.85;100.00
50634;BME280;36596;55.798;38.462;2022-07-22T07:49:01;99328.38;;;24.62;100.00
50634;BME280;36596;55.798;38.462;2022-07-22T07:51:27;99320.31;;;24.42;100.00
50634;BME280;36596;55.798;38.462;2022-07-22T07:53:52;99320.72;;;24.41;100.00
50634;BME280;36596;55.798;38.462;2022-07-22T07:56:18;99312.72;;;24.36;100.00
50634;BME280;36596;55.798;38.462;2022-07-22T07:58:44;99313.50;;;24.33;100.00
50634;BME280;36596;55.798;38.462;2022-07-22T08:01:10;99314.78;;;24.57;100.00
50634;BME280;36596;55.798;38.462;2022-07-22T08:03:36;99319.59;;;24.64;100.00
50634;BME280;36596;55.798;38.462;2022-07-22T08:06:03;99332.00;;;24.73;100.00
50634;BME280;36596;55.798;38.462;2022-07-22T08:08:36;99322.44;;;24.67;100.00
50634;BME280;36596;55.798;38.462;2022-07-22T08:11:12;99325.88;;;24.39;100.00
50634;BME280;36596;55.798;38.462;2022-07-22T08:13:50;99314.22;;;24.19;100.00
50634;BME280;36596;55.798;38.462;2022-07-22T08:16:35;99326.94;;;24.13;100.00
50634;BME280;36596;55.798;38.462;2022-07-22T08:19:01;99322.09;;;24.02;100.00
50634;BME280;36596;55.798;38.462;2022-07-22T08:21:26;99324.09;;;24.05;100.00
50634;BME280;36596;55.798;38.462;2022-07-22T08:23:57;99324.16;;;24.13;100.00
50634;BME280;36596;55.798;38.462;2022-07-22T08:26:23;99331.09;;;24.55;100.00
50634;BME280;36596;55.798;38.462;2022-07-22T08:28:49;99315.31;;;24.99;100.00
50634;BME280;36596;55.798;38.462;2022-07-22T08:31:15;99313.31;;;25.13;100.00
50634;BME280;36596;55.798;38.462;2022-07-22T08:33:41;99324.50;;;25.17;100.00
50634;BME280;36596;55.798;38.462;2022-07-22T08:36:07;99322.50;;;25.18;100.00
50634;BME280;36596;55.798;38.462;2022-07-22T08:38:34;99328.91;;;25.40;100.00
50634;BME280;36596;55.798;38.462;2022-07-22T08:41:01;99325.69;;;25.81;100.00
50634;BME280;36596;55.798;38.462;2022-07-22T08:43:27;99326.47;;;26.14;100.00
50634;BME280;36596;55.798;38.462;2022-07-22T08:45:53;99327.56;;;26.31;100.00
50634;BME280;36596;55.798;38.462;2022-07-22T08:48:19;99333.13;;;26.49;100.00
50634;BME280;36596;55.798;38.462;2022-07-22T08:51:05;99308.00;;;26.31;100.00
50634;BME280;36596;55.798;38.462;2022-07-22T08:53:38;99335.63;;;26.18;100.00
50634;BME280;36596;55.798;38.462;2022-07-22T08:56:12;99323.25;;;26.15;100.00
50634;BME280;36596;55.798;38.462;2022-07-22T08:58:38;99334.84;;;25.96;100.00
50634;BME280;36596;55.798;38.462;2022-07-22T09:03:54;99332.22;;;26.70;100.00
50634;BME280;36596;55.798;38.462;2022-07-22T09:06:25;99340.84;;;27.01;96.37
50634;BME280;36596;55.798;38.462;2022-07-22T09:08:59;99330.63;;;27.36;93.73
50634;BME280;36596;55.798;38.462;2022-07-22T09:11:45;99330.09;;;27.94;92.44
50634;BME280;36596;55.798;38.462;2022-07-22T09:14:11;99333.06;;;27.79;90.61
50634;BME280;36596;55.798;38.462;2022-07-22T09:17:00;99339.63;;;28.03;91.15
50634;BME280;36596;55.798;38.462;2022-07-22T09:19:40;99330.75;;;28.43;90.25
50634;BME280;36596;55.798;38.462;2022-07-22T09:22:41;99344.44;;;28.72;88.67
50634;BME280;36596;55.798;38.462;2022-07-22T09:25:36;99343.81;;;28.57;85.96
50634;BME280;36596;55.798;38.462;2022-07-22T09:28:53;99345.38;;;28.58;89.22
50634;BME280;36596;55.798;38.462;2022-07-22T09:31:40;99329.97;;;28.42;86.47
50634;BME280;36596;55.798;38.462;2022-07-22T09:34:31;99333.00;;;28.24;87.15
50634;BME280;36596;55.798;38.462;2022-07-22T09:37:03;99336.50;;;27.94;88.73
50634;BME280;36596;55.798;38.462;2022-07-22T09:39:31;99341.88;;;27.78;90.41
50634;BME280;36596;55.798;38.462;2022-07-22T09:42:01;99346.97;;;27.45;92.43
50634;BME280;36596;55.798;38.462;2022-07-22T09:44:27;99337.53;;;27.17;93.66
50634;BME280;36596;55.798;38.462;2022-07-22T09:46:56;99352.44;;;27.03;95.00
50634;BME280;36596;55.798;38.462;2022-07-22T09:49:45;99349.28;;;26.97;95.13
50634;BME280;36596;55.798;38.462;2022-07-22T09:52:37;99335.50;;;27.21;96.27
50634;BME280;36596;55.798;38.462;2022-07-22T09:55:23;99351.91;;;27.23;92.24
50634;BME280;36596;55.798;38.462;2022-07-22T09:57:51;99347.19;;;27.09;93.74
50634;BME280;36596;55.798;38.462;2022-07-22T10:00:22;99360.00;;;27.06;96.61
50634;BME280;36596;55.798;38.462;2022-07-22T10:03:01;99362.91;;;26.92;98.33
50634;BME280;36596;55.798;38.462;2022-07-22T10:05:38;99354.59;;;26.74;100.00
50634;BME280;36596;55.798;38.462;2022-07-22T10:08:06;99354.63;;;26.66;100.00
50634;BME280;36596;55.798;38.462;2022-07-22T10:10:37;99359.41;;;26.62;100.00
50634;BME280;36596;55.798;38.462;2022-07-22T10:13:08;99357.31;;;26.88;100.00
50634;BME280;36596;55.798;38.462;2022-07-22T10:15:36;99356.50;;;27.54;96.81
50634;BME280;36596;55.798;38.462;2022-07-22T10:18:06;99358.22;;;27.86;93.72
50634;BME280;36596;55.798;38.462;2022-07-22T10:20:36;99358.78;;;27.67;92.88
50634;BME280;36596;55.798;38.462;2022-07-22T10:23:07;99345.06;;;27.27;94.09
50634;BME280;36596;55.798;38.462;2022-07-22T10:25:53;99363.91;;;27.19;95.05
50634;BME280;36596;55.798;38.462;2022-07-22T10:28:30;99364.88;;;26.91;97.00
50634;BME280;36596;55.798;38.462;2022-07-22T10:31:19;99365.69;;;26.88;99.17
50634;BME280;36596;55.798;38.462;2022-07-22T10:33:48;99361.56;;;28.12;91.89
50634;BME280;36596;55.798;38.462;2022-07-22T10:36:32;99368.47;;;29.31;85.63
50634;BME280;36596;55.798;38.462;2022-07-22T10:39:12;99362.03;;;29.03;82.63
50634;BME280;36596;55.798;38.462;2022-07-22T10:44:08;99362.47;;;27.57;90.33
50634;BME280;36596;55.798;38.462;2022-07-22T10:46:56;99366.38;;;28.12;92.75
50634;BME280;36596;55.798;38.462;2022-07-22T10:49:25;99365.56;;;28.80;87.16
50634;BME280;36596;55.798;38.462;2022-07-22T10:54:32;99360.47;;;29.02;84.44
50634;BME280;36596;55.798;38.462;2022-07-22T10:56:59;99366.00;;;29.60;83.97
50634;BME280;36596;55.798;38.462;2022-07-22T10:59:26;99364.38;;;30.71;77.30
50634;BME280;36596;55.798;38.462;2022-07-22T11:01:52;99346.78;;;31.52;70.54
50634;BME280;36596;55.798;38.462;2022-07-22T11:04:25;99355.81;;;31.64;67.36
50634;BME280;36596;55.798;38.462;2022-07-22T11:06:55;99358.84;;;31.04;69.08
50634;BME280;36596;55.798;38.462;2022-07-22T11:09:30;99355.47;;;30.32;74.65
50634;BME280;36596;55.798;38.462;2022-07-22T11:11:56;99348.53;;;29.49;77.61
50634;BME280;36596;55.798;38.462;2022-07-22T11:16:52;99359.94;;;28.49;85.17
50634;BME280;36596;55.798;38.462;2022-07-22T11:19:22;99360.19;;;27.89;89.71
50634;BME280;36596;55.798;38.462;2022-07-22T11:21:50;99364.66;;;27.80;90.71
50634;BME280;36596;55.798;38.462;2022-07-22T11:24:18;99365.50;;;27.77;90.52
50634;BME280;36596;55.798;38.462;2022-07-22T11:26:47;99357.63;;;28.06;90.01
50634;BME280;36596;55.798;38.462;2022-07-22T11:31:57;99354.63;;;30.75;74.91
50634;BME280;36596;55.798;38.462;2022-07-22T11:34:24;99357.88;;;31.10;68.84
50634;BME280;36596;55.798;38.462;2022-07-22T11:36:51;99351.34;;;30.97;67.37
50634;BME280;36596;55.798;38.462;2022-07-22T11:39:27;99354.31;;;31.26;67.64
50634;BME280;36596;55.798;38.462;2022-07-22T11:41:55;99350.34;;;31.73;61.97
50634;BME280;36596;55.798;38.462;2022-07-22T11:44:24;99340.00;;;31.00;66.21
50634;BME280;36596;55.798;38.462;2022-07-22T11:46:50;99349.03;;;29.91;71.06
50634;BME280;36596;55.798;38.462;2022-07-22T11:49:20;99357.78;;;29.22;78.24
50634;BME280;36596;55.798;38.462;2022-07-22T11:51:46;99360.38;;;28.79;82.40
50634;BME280;36596;55.798;38.462;2022-07-22T11:54:12;99359.78;;;28.64;84.02
50634;BME280;36596;55.798;38.462;2022-07-22T11:56:38;99340.72;;;28.79;82.32
50634;BME280;36596;55.798;38.462;2022-07-22T11:59:06;99360.09;;;28.73;83.13
50634;BME280;36596;55.798;38.462;2022-07-22T12:01:34;99363.66;;;28.73;83.00
50634;BME280;36596;55.798;38.462;2022-07-22T12:04:07;99352.06;;;29.02;83.30
50634;BME280;36596;55.798;38.462;2022-07-22T12:06:35;99349.41;;;28.61;82.59
50634;BME280;36596;55.798;38.462;2022-07-22T12:09:43;99350.19;;;28.61;84.34
50634;BME280;36596;55.798;38.462;2022-07-22T12:12:03;99350.88;;;28.38;86.03
50634;BME280;36596;55.798;38.462;2022-07-22T12:14:32;99365.38;;;28.94;84.04
50634;BME280;36596;55.798;38.462;2022-07-22T12:17:09;99347.94;;;31.22;73.73
50634;BME280;36596;55.798;38.462;2022-07-22T12:19:37;99351.75;;;32.11;63.67
50634;BME280;36596;55.798;38.462;2022-07-22T12:27:00;99350.75;;;30.69;64.81
50634;BME280;36596;55.798;38.462;2022-07-22T12:31:57;99344.69;;;29.63;72.79
50634;BME280;36596;55.798;38.462;2022-07-22T12:37:21;99351.69;;;30.22;73.46
50634;BME280;36596;55.798;38.462;2022-07-22T12:39:56;99336.59;;;31.26;66.43
50634;BME280;36596;55.798;38.462;2022-07-22T12:42:24;99348.44;;;33.61;57.01
50634;BME280;36596;55.798;38.462;2022-07-22T12:50:54;99344.13;;;33.69;49.57
50634;BME280;36596;55.798;38.462;2022-07-22T12:53:22;99338.41;;;32.28;53.16
50634;BME280;36596;55.798;38.462;2022-07-22T12:55:50;99341.50;;;31.22;62.36
50634;BME280;36596;55.798;38.462;2022-07-22T12:58:27;99330.81;;;30.60;69.75
50634;BME280;36596;55.798;38.462;2022-07-22T13:00:55;99347.88;;;30.09;72.95
50634;BME280;36596;55.798;38.462;2022-07-22T13:03:23;99343.41;;;29.44;75.27
50634;BME280;36596;55.798;38.462;2022-07-22T13:05:53;99348.31;;;29.09;76.59
50634;BME280;36596;55.798;38.462;2022-07-22T13:08:24;99344.56;;;29.23;80.21
50634;BME280;36596;55.798;38.462;2022-07-22T13:10:51;99340.91;;;29.50;78.05
50634;BME280;36596;55.798;38.462;2022-07-22T13:13:19;99337.97;;;29.33;78.66
50634;BME280;36596;55.798;38.462;2022-07-22T13:15:45;99331.34;;;28.92;81.19
50634;BME280;36596;55.798;38.462;2022-07-22T13:18:11;99347.16;;;28.79;82.42
50634;BME280;36596;55.798;38.462;2022-07-22T13:20:37;99331.69;;;28.94;82.75
50634;BME280;36596;55.798;38.462;2022-07-22T13:23:03;99336.78;;;30.02;78.03